createdAt,value
2019-04-21T00:01:00.390Z,15.00
2019-04-21T00:03:40.789Z,15.00
2019-04-21T00:06:29.850Z,14.90
2019-04-21T00:09:12.967Z,14.90
2019-04-21T00:11:40.859Z,14.80
2019-04-21T00:14:14.147Z,14.80
2019-04-21T00:16:45.430Z,14.70
2019-04-21T00:19:40.966Z,14.70
2019-04-21T00:22:31.030Z,14.70
2019-04-21T00:25:08.953Z,14.70
2019-04-21T00:27:46.401Z,14.60
2019-04-21T00:30:34.078Z,14.60
2019-04-21T00:32:58.816Z,14.60
2019-04-21T00:35:29.414Z,14.50
2019-04-21T00:38:25.071Z,14.50
2019-04-21T00:41:05.471Z,14.50
2019-04-21T00:43:35.094Z,14.40
2019-04-21T00:46:03.433Z,14.40
2019-04-21T00:48:53.552Z,14.30
2019-04-21T00:51:40.680Z,14.30
2019-04-21T00:54:12.923Z,14.20
2019-04-21T00:56:48.261Z,14.20
2019-04-21T00:59:28.186Z,14.20
2019-04-21T01:01:55.589Z,14.10
2019-04-21T01:04:39.632Z,14.10
2019-04-21T01:07:18.037Z,14.00
2019-04-21T01:09:45.301Z,14.00
2019-04-21T01:12:32.157Z,14.00
2019-04-21T01:15:12.336Z,13.90
2019-04-21T01:17:40.821Z,13.90
2019-04-21T01:20:11.886Z,13.90
2019-04-21T01:22:33.363Z,13.80
2019-04-21T01:25:19.014Z,13.70
2019-04-21T01:28:01.255Z,13.70
2019-04-21T01:30:40.996Z,13.70
2019-04-21T01:33:21.671Z,13.60
2019-04-21T01:35:53.632Z,13.60
2019-04-21T01:41:17.369Z,13.50
2019-04-21T01:43:45.875Z,13.40
2019-04-21T01:46:19.427Z,13.40
2019-04-21T01:48:56.988Z,13.30
2019-04-21T01:51:39.790Z,13.30
2019-04-21T01:54:35.524Z,13.30
2019-04-21T01:57:17.299Z,13.20
2019-04-21T01:59:51.212Z,13.20
2019-04-21T02:02:36.445Z,13.20
2019-04-21T02:05:17.428Z,13.10
2019-04-21T02:07:50.910Z,13.10
2019-04-21T02:10:34.675Z,13.00
2019-04-21T02:13:03.538Z,13.00
2019-04-21T02:15:42.238Z,13.00
2019-04-21T02:18:17.008Z,12.90
2019-04-21T02:20:41.232Z,12.90
2019-04-21T02:26:10.102Z,12.80
2019-04-21T02:28:50.230Z,12.70
2019-04-21T02:31:40.606Z,12.70
2019-04-21T02:34:06.604Z,12.70
2019-04-21T02:39:21.019Z,12.60
2019-04-21T02:42:05.311Z,12.60
2019-04-21T02:47:16.727Z,12.60
2019-04-21T02:52:31.337Z,12.50
2019-04-21T02:55:04.070Z,12.50
2019-04-21T02:57:41.343Z,12.50
2019-04-21T03:00:29.066Z,12.40
2019-04-21T03:03:31.065Z,12.40
2019-04-21T03:06:24.849Z,12.40
2019-04-21T03:08:59.008Z,12.30
2019-04-21T03:11:31.308Z,12.30
2019-04-21T03:14:16.468Z,12.20
2019-04-21T03:16:43.044Z,12.20
2019-04-21T03:19:37.963Z,12.20
2019-04-21T03:22:14.470Z,12.20
2019-04-21T03:25:00.878Z,12.20
2019-04-21T03:35:53.467Z,12.00
2019-04-21T03:37:42.511Z,12.00
2019-04-21T03:40:21.726Z,12.00
2019-04-21T03:42:57.491Z,12.00
2019-04-21T03:45:40.492Z,11.90
2019-04-21T03:50:50.888Z,11.90
2019-04-21T03:53:33.941Z,11.90
2019-04-21T03:58:55.884Z,11.80
2019-04-21T04:01:23.947Z,11.80
2019-04-21T04:04:20.202Z,11.80
2019-04-21T04:07:04.019Z,11.80
2019-04-21T04:09:59.045Z,11.80
2019-04-21T04:12:26.244Z,11.80
2019-04-21T04:15:03.059Z,11.80
2019-04-21T04:17:40.723Z,11.70
2019-04-21T04:20:22.243Z,11.70
2019-04-21T04:22:56.449Z,11.70
2019-04-21T04:25:28.075Z,11.70
2019-04-21T04:30:47.582Z,11.70
2019-04-21T04:33:27.891Z,11.70
2019-04-21T04:36:10.972Z,11.70
2019-04-21T04:38:41.451Z,11.70
2019-04-21T04:44:17.600Z,11.70
2019-04-21T04:46:33.366Z,11.70
2019-04-21T04:49:10.747Z,11.70
2019-04-21T04:52:04.778Z,11.70
2019-04-21T04:54:33.775Z,11.80
2019-04-21T04:57:07.738Z,11.80
2019-04-21T05:02:26.540Z,11.80
2019-04-21T05:04:59.311Z,11.90
2019-04-21T05:07:36.194Z,11.90
2019-04-21T05:09:59.664Z,11.90
2019-04-21T05:12:38.528Z,12.00
2019-04-21T05:15:11.517Z,12.00
2019-04-21T05:17:50.910Z,12.00
2019-04-21T05:20:26.173Z,12.00
2019-04-21T05:23:02.978Z,12.10
2019-04-21T05:25:33.758Z,12.10
2019-04-21T05:28:05.432Z,12.10
2019-04-21T05:31:16.370Z,12.20
2019-04-21T05:33:57.774Z,12.20
2019-04-21T05:36:56.713Z,12.20
2019-04-21T05:39:43.504Z,12.30
2019-04-21T05:42:10.485Z,12.30
2019-04-21T05:48:12.197Z,12.40
2019-04-21T05:50:33.686Z,12.40
2019-04-21T05:53:24.122Z,12.50
2019-04-21T05:55:56.985Z,12.50
2019-04-21T05:58:33.382Z,12.50
2019-04-21T06:04:03.600Z,12.60
2019-04-21T06:06:39.507Z,12.70
2019-04-21T06:08:59.487Z,12.80
2019-04-21T06:11:36.254Z,12.90
2019-04-21T06:14:21.730Z,13.00
2019-04-21T06:16:55.652Z,13.20
2019-04-21T06:19:41.346Z,13.40
2019-04-21T06:22:11.999Z,13.50
2019-04-21T06:25:16.255Z,13.70
2019-04-21T06:27:28.068Z,14.00
2019-04-21T06:30:00.042Z,14.20
2019-04-21T06:32:46.654Z,14.40
2019-04-21T06:35:52.983Z,14.60
2019-04-21T06:38:19.631Z,14.80
2019-04-21T06:40:48.388Z,15.00
2019-04-21T06:46:10.983Z,15.50
2019-04-21T06:48:48.276Z,15.70
2019-04-21T06:51:22.537Z,15.90
2019-04-21T06:54:01.716Z,16.10
2019-04-21T06:56:37.991Z,16.30
2019-04-21T06:59:06.089Z,16.50
2019-04-21T07:02:18.355Z,16.80
2019-04-21T07:04:25.186Z,17.00
2019-04-21T07:07:02.177Z,17.20
2019-04-21T07:09:53.088Z,17.40
2019-04-21T07:12:18.671Z,17.60
2019-04-21T07:14:59.029Z,17.80
2019-04-21T07:17:45.404Z,18.00
2019-04-21T07:20:12.485Z,18.20
2019-04-21T07:22:50.828Z,18.40
2019-04-21T07:25:28.322Z,18.70
2019-04-21T07:28:03.086Z,18.90
2019-04-21T07:30:37.169Z,19.10
2019-04-21T07:33:37.557Z,19.30
2019-04-21T07:35:50.956Z,19.50
2019-04-21T07:38:29.830Z,19.70
2019-04-21T07:40:58.739Z,19.90
2019-04-21T07:43:33.987Z,20.20
2019-04-21T07:46:10.155Z,20.30
2019-04-21T07:48:56.363Z,20.60
2019-04-21T07:52:06.001Z,20.70
2019-04-21T07:54:54.065Z,21.00
2019-04-21T07:57:17.040Z,21.20
2019-04-21T08:02:29.389Z,21.60
2019-04-21T08:07:54.741Z,22.10
2019-04-21T08:10:16.103Z,22.30
2019-04-21T08:12:54.214Z,22.50
2019-04-21T08:15:52.557Z,22.70
2019-04-21T08:18:14.143Z,23.00
2019-04-21T08:20:48.003Z,23.20
2019-04-21T08:23:25.587Z,23.50
2019-04-21T08:26:04.771Z,23.70
2019-04-21T08:28:39.198Z,23.90
2019-04-21T08:31:15.386Z,24.10
2019-04-21T08:33:55.397Z,24.30
2019-04-21T08:36:40.677Z,24.50
2019-04-21T08:39:08.748Z,24.70
2019-04-21T08:41:46.438Z,24.90
2019-04-21T08:44:25.649Z,25.00
2019-04-21T08:47:00.980Z,25.20
2019-04-21T08:49:39.261Z,25.40
2019-04-21T08:52:09.938Z,25.50
2019-04-21T08:54:49.629Z,25.70
2019-04-21T08:57:50.740Z,25.90
2019-04-21T09:03:06.774Z,26.10
2019-04-21T09:05:45.568Z,26.30
2019-04-21T09:08:20.138Z,26.40
2019-04-21T09:10:54.699Z,26.50
2019-04-21T09:13:32.155Z,26.70
2019-04-21T09:16:09.086Z,26.80
2019-04-21T09:18:41.914Z,27.00
2019-04-21T09:21:31.486Z,27.10
2019-04-21T09:24:04.573Z,27.20
2019-04-21T09:26:41.345Z,27.40
2019-04-21T09:29:10.924Z,27.50
2019-04-21T09:31:41.097Z,27.60
2019-04-21T09:34:20.769Z,27.80
2019-04-21T09:36:58.737Z,27.90
2019-04-21T09:39:31.273Z,28.10
2019-04-21T09:42:06.596Z,28.20
2019-04-21T09:44:44.372Z,28.30
2019-04-21T09:47:22.885Z,28.40
2019-04-21T09:49:56.288Z,28.50
2019-04-21T09:52:39.657Z,28.60
2019-04-21T09:55:14.288Z,28.70
2019-04-21T09:57:52.188Z,28.80
2019-04-21T10:00:25.381Z,29.00
2019-04-21T10:03:06.047Z,29.20
2019-04-21T10:05:36.658Z,29.30
2019-04-21T10:08:12.513Z,29.40
2019-04-21T10:10:49.076Z,29.60
2019-04-21T10:13:25.386Z,29.70
2019-04-21T10:16:19.643Z,29.70
2019-04-21T10:18:54.953Z,29.90
2019-04-21T10:21:31.592Z,30.00
2019-04-21T10:24:10.381Z,30.00
2019-04-21T10:26:45.711Z,30.10
2019-04-21T10:29:25.929Z,30.20
2019-04-21T10:31:59.623Z,30.20
2019-04-21T10:34:34.903Z,30.20
2019-04-21T10:37:11.232Z,30.20
2019-04-21T10:39:47.526Z,30.20
2019-04-21T10:42:23.682Z,30.30
2019-04-21T10:44:59.058Z,30.30
2019-04-21T10:47:34.612Z,30.30
2019-04-21T10:50:10.931Z,30.40
2019-04-21T10:53:18.691Z,30.50
2019-04-21T10:56:06.454Z,30.60
2019-04-21T10:58:36.325Z,30.70
2019-04-21T11:01:14.257Z,30.80
2019-04-21T11:04:29.655Z,30.90
2019-04-21T11:07:10.767Z,31.00
2019-04-21T11:09:42.322Z,31.10
2019-04-21T11:12:19.813Z,31.10
2019-04-21T11:14:55.124Z,31.20
2019-04-21T11:17:30.356Z,31.20
2019-04-21T11:20:06.696Z,31.20
2019-04-21T11:22:42.007Z,31.30
2019-04-21T11:25:17.831Z,31.30
2019-04-21T11:27:56.163Z,31.30
2019-04-21T11:30:31.737Z,31.40
2019-04-21T11:33:08.974Z,31.50
2019-04-21T11:35:45.498Z,31.50
2019-04-21T11:38:30.086Z,31.60
2019-04-21T11:41:03.947Z,31.60
2019-04-21T11:43:39.211Z,31.60
2019-04-21T11:46:14.609Z,31.70
2019-04-21T11:48:50.406Z,31.80
2019-04-21T11:51:26.980Z,31.90
2019-04-21T11:54:02.281Z,32.00
2019-04-21T11:56:38.823Z,32.20
2019-04-21T11:59:15.408Z,32.20
2019-04-21T12:01:51.797Z,32.30
2019-04-21T12:04:27.534Z,32.40
2019-04-21T12:07:02.944Z,32.40
2019-04-21T12:09:39.502Z,32.50
2019-04-21T12:12:14.980Z,32.70
2019-04-21T12:14:50.349Z,32.70
2019-04-21T12:17:25.964Z,32.80
2019-04-21T12:20:01.269Z,32.90
2019-04-21T12:22:37.416Z,33.00
2019-04-21T12:25:15.534Z,33.10
2019-04-21T12:27:52.064Z,33.10
2019-04-21T12:30:27.435Z,33.20
2019-04-21T12:33:27.998Z,33.20
2019-04-21T12:36:03.966Z,33.20
2019-04-21T12:38:46.915Z,33.20
2019-04-21T12:41:16.227Z,33.20
2019-04-21T12:43:52.706Z,33.30
2019-04-21T12:46:28.140Z,33.30
2019-04-21T12:49:04.122Z,33.40
2019-04-21T12:51:39.801Z,33.40
2019-04-21T12:54:15.429Z,33.40
2019-04-21T12:56:51.676Z,33.40
2019-04-21T12:59:29.229Z,33.50
2019-04-21T13:02:03.958Z,33.50
2019-04-21T13:04:40.019Z,33.50
2019-04-21T13:07:15.450Z,33.60
2019-04-21T13:10:08.647Z,33.60
2019-04-21T13:12:44.209Z,33.80
2019-04-21T13:15:19.939Z,33.80
2019-04-21T13:17:56.313Z,33.90
2019-04-21T13:20:31.656Z,34.00
2019-04-21T13:23:08.032Z,34.10
2019-04-21T13:25:43.687Z,34.20
2019-04-21T13:28:18.959Z,34.30
2019-04-21T13:30:54.188Z,34.40
2019-04-21T13:33:33.364Z,34.50
2019-04-21T13:36:09.675Z,34.60
2019-04-21T13:39:34.768Z,34.60
2019-04-21T13:41:49.478Z,34.70
2019-04-21T13:44:17.763Z,34.80
2019-04-21T13:46:54.569Z,34.90
2019-04-21T13:49:29.862Z,35.00
2019-04-21T13:52:06.649Z,35.00
2019-04-21T13:54:45.524Z,35.10
2019-04-21T13:57:20.928Z,35.20
2019-04-21T13:59:57.200Z,35.20
2019-04-21T14:02:32.451Z,35.20
2019-04-21T14:05:11.492Z,35.20
2019-04-21T14:07:46.056Z,35.20
2019-04-21T14:10:21.844Z,35.20
2019-04-21T14:12:58.394Z,35.30
2019-04-21T14:15:33.746Z,35.30
2019-04-21T14:18:09.005Z,35.40
2019-04-21T14:20:44.978Z,35.40
2019-04-21T14:23:28.599Z,35.40
2019-04-21T14:25:57.578Z,35.40
2019-04-21T14:28:33.595Z,35.30
2019-04-21T14:31:10.490Z,35.20
2019-04-21T14:33:45.948Z,35.20
2019-04-21T14:36:21.305Z,35.20
2019-04-21T14:39:00.626Z,35.20
2019-04-21T14:41:40.290Z,35.20
2019-04-21T14:44:15.743Z,35.20
2019-04-21T14:46:57.348Z,35.20
2019-04-21T14:49:47.153Z,35.10
2019-04-21T14:52:30.941Z,35.10
2019-04-21T14:55:12.267Z,35.00
2019-04-21T14:57:47.857Z,35.00
2019-04-21T15:00:27.157Z,34.90
2019-04-21T15:03:03.563Z,34.90
2019-04-21T15:05:43.004Z,34.90
2019-04-21T15:08:19.347Z,34.90
2019-04-21T15:10:54.951Z,34.90
2019-04-21T15:13:30.310Z,35.00
2019-04-21T15:16:08.982Z,35.00
2019-04-21T15:18:44.581Z,35.10
2019-04-21T15:21:19.885Z,35.20
2019-04-21T15:23:56.250Z,35.20
2019-04-21T15:26:32.408Z,35.30
2019-04-21T15:29:08.852Z,35.20
2019-04-21T15:31:44.817Z,35.20
2019-04-21T15:34:22.588Z,35.20
2019-04-21T15:36:57.985Z,35.20
2019-04-21T15:39:34.062Z,35.30
2019-04-21T15:42:10.412Z,35.30
2019-04-21T15:44:45.651Z,35.40
2019-04-21T15:47:22.010Z,35.40
2019-04-21T15:50:03.693Z,35.50
2019-04-21T15:52:35.835Z,35.60
2019-04-21T15:55:19.420Z,35.60
2019-04-21T15:58:28.346Z,35.70
2019-04-21T16:01:40.844Z,35.80
2019-04-21T16:04:22.974Z,35.90
2019-04-21T16:06:59.476Z,36.00
2019-04-21T16:09:37.321Z,36.00
2019-04-21T16:12:13.671Z,36.10
2019-04-21T16:14:50.369Z,36.20
2019-04-21T16:17:27.638Z,36.30
2019-04-21T16:20:06.108Z,36.40
2019-04-21T16:22:50.622Z,36.50
2019-04-21T16:25:26.776Z,36.50
2019-04-21T16:32:50.153Z,36.10
2019-04-21T16:35:31.574Z,35.60
2019-04-21T16:38:07.864Z,35.30
2019-04-21T16:40:56.355Z,34.90
2019-04-21T16:43:27.250Z,34.40
2019-04-21T16:46:04.568Z,34.10
2019-04-21T16:48:44.147Z,33.70
2019-04-21T16:51:22.241Z,33.40
2019-04-21T16:54:06.029Z,33.10
2019-04-21T16:56:55.405Z,32.70
2019-04-21T16:59:40.655Z,32.40
2019-04-21T17:02:16.517Z,32.00
2019-04-21T17:04:52.153Z,31.70
2019-04-21T17:07:30.345Z,31.40
2019-04-21T17:10:20.471Z,31.20
2019-04-21T17:12:56.153Z,30.90
2019-04-21T17:15:51.226Z,30.60
2019-04-21T17:18:29.933Z,30.40
2019-04-21T17:20:53.590Z,30.20
2019-04-21T17:23:25.324Z,30.00
2019-04-21T17:26:01.127Z,29.70
2019-04-21T17:28:36.812Z,29.50
2019-04-21T17:31:12.825Z,29.30
2019-04-21T17:33:56.982Z,29.10
2019-04-21T17:36:29.430Z,28.90
2019-04-21T17:39:06.978Z,28.70
2019-04-21T17:41:56.361Z,28.50
2019-04-21T17:50:25.411Z,28.10
2019-04-21T17:54:23.405Z,27.80
2019-04-21T17:57:17.958Z,27.70
2019-04-21T17:59:58.857Z,27.50
2019-04-21T18:02:34.240Z,27.40
2019-04-21T18:05:08.680Z,27.30
2019-04-21T18:07:54.568Z,27.20
2019-04-21T18:10:34.851Z,27.10
2019-04-21T18:13:28.623Z,27.00
2019-04-21T18:16:22.645Z,26.90
2019-04-21T18:18:53.009Z,26.70
2019-04-21T18:21:49.987Z,26.60
2019-04-21T18:24:45.919Z,26.50
2019-04-21T18:27:26.720Z,26.30
2019-04-21T18:30:12.966Z,26.20
2019-04-21T18:33:04.676Z,26.10
2019-04-21T18:36:12.443Z,26.00
2019-04-21T18:39:12.302Z,25.80
2019-04-21T19:07:55.811Z,24.30
2019-04-21T19:10:45.717Z,24.10
2019-04-21T19:17:39.639Z,23.90
2019-04-21T19:20:12.953Z,23.80
2019-04-21T19:22:47.136Z,23.70
2019-04-21T19:25:29.368Z,23.50
2019-04-21T19:28:03.434Z,23.40
2019-04-21T19:30:51.016Z,23.30
2019-04-21T19:33:22.423Z,23.20
2019-04-21T19:35:41.557Z,23.00
2019-04-21T19:38:29.159Z,22.80
2019-04-21T19:41:18.859Z,22.70
2019-04-21T19:43:57.437Z,22.60
2019-04-21T19:46:33.511Z,22.40
2019-04-21T19:49:21.106Z,22.30
2019-04-21T19:51:50.321Z,22.20
2019-04-21T19:54:25.203Z,22.10
2019-04-21T19:56:55.503Z,22.00
2019-04-21T19:59:39.917Z,21.80
2019-04-21T20:02:09.038Z,21.80
2019-04-21T20:04:54.214Z,21.70
2019-04-21T20:07:41.872Z,21.50
2019-04-21T20:10:44.426Z,21.40
2019-04-21T20:13:33.850Z,21.40
2019-04-21T20:15:59.702Z,21.30
2019-04-21T20:18:30.156Z,21.20
2019-04-21T20:21:03.914Z,21.10
2019-04-21T20:23:41.456Z,21.00
2019-04-21T20:26:17.597Z,20.90
2019-04-21T20:29:07.274Z,20.80
2019-04-21T20:31:45.975Z,20.70
2019-04-21T20:34:33.374Z,20.60
2019-04-21T20:37:21.132Z,20.50
2019-04-21T20:39:47.008Z,20.40
2019-04-21T20:43:07.410Z,20.30
2019-04-21T20:45:49.150Z,20.30
2019-04-21T20:48:18.077Z,20.20
2019-04-21T20:51:14.556Z,20.10
2019-04-21T20:53:49.087Z,20.00
2019-04-21T20:56:28.730Z,20.00
2019-04-21T20:59:50.884Z,19.90
2019-04-21T21:02:58.181Z,19.80
2019-04-21T21:05:39.948Z,19.80
2019-04-21T21:08:31.173Z,19.70
2019-04-21T21:12:22.332Z,19.60
2019-04-21T21:14:52.975Z,19.60
2019-04-21T21:17:48.267Z,19.50
2019-04-21T21:20:18.222Z,19.40
2019-04-21T21:23:05.224Z,19.30
2019-04-21T21:29:19.805Z,19.20
2019-04-21T21:31:59.954Z,19.10
2019-04-21T21:34:42.535Z,19.10
2019-04-21T21:37:21.561Z,19.00
2019-04-21T21:42:11.852Z,18.90
2019-04-21T21:44:54.598Z,18.80
2019-04-21T21:47:45.218Z,18.70
2019-04-21T21:50:11.350Z,18.70
2019-04-21T21:52:51.161Z,18.60
2019-04-21T21:55:19.302Z,18.60
2019-04-21T21:57:58.804Z,18.50
2019-04-21T22:00:42.022Z,18.50
2019-04-21T22:03:24.442Z,18.40
2019-04-21T22:06:02.187Z,18.30
2019-04-21T22:08:34.363Z,18.30
2019-04-21T22:11:15.866Z,18.20
2019-04-21T22:14:00.463Z,18.20
2019-04-21T22:16:44.096Z,18.10
2019-04-21T22:19:29.969Z,18.10
2019-04-21T22:22:08.018Z,18.00
2019-04-21T22:25:03.117Z,18.00
2019-04-21T22:31:15.054Z,17.90
2019-04-21T22:33:54.861Z,17.90
2019-04-21T22:36:48.470Z,17.80
2019-04-21T22:39:42.285Z,17.80
2019-04-21T22:42:12.156Z,17.80
2019-04-21T22:44:52.394Z,17.70
2019-04-21T22:47:47.949Z,17.70
2019-04-21T22:50:32.762Z,17.70
2019-04-21T22:53:39.537Z,17.60
2019-04-21T22:56:33.608Z,17.60
2019-04-21T23:00:10.723Z,17.60
2019-04-21T23:03:10.710Z,17.50
2019-04-21T23:06:01.464Z,17.50
2019-04-21T23:08:53.048Z,17.50
2019-04-21T23:15:43.486Z,17.40
2019-04-21T23:18:53.595Z,17.40
2019-04-21T23:21:55.294Z,17.30
2019-04-21T23:24:58.627Z,17.30
2019-04-21T23:27:53.940Z,17.20
2019-04-21T23:30:45.881Z,17.10
2019-04-21T23:33:25.395Z,17.10
2019-04-21T23:37:00.480Z,17.10
2019-04-21T23:39:41.567Z,17.00
2019-04-21T23:42:29.064Z,16.90
2019-04-21T23:45:02.945Z,16.90
2019-04-21T23:47:57.822Z,16.90
2019-04-21T23:50:50.698Z,16.80
2019-04-21T23:54:23.139Z,16.80
2019-04-21T23:57:30.417Z,16.70
